Kecskemet, Hungary
Current Conditions -  °F | °C
As of 2:45 AM on Sunday 26 Oct 2014 (Local Time) from LHKE Reporting Station
Haze Haze  
Wind Chill: 45°   Ceiling: 3700
Heat Index: 45°   Visibility: 3mi
Dew Point: 45°   Wind: 2mph
Humidity: 100%   Direction: 250°WSW
Pressure: 30.33"   Gusts: NA
Location:  46.91°N, 19.69°E
Report Text: LHKE 260045Z 25002KT 5000 BR BKN037 07/07 Q1027 NOSIG RMK WHT
Loading
Personal Weather Stations






























Interactive Weather Map
Tropical Storm Tracking
New forecast layout! Learn more

10-Day Weather Forecast

Advertisements
Track Severe Weather on mobile